createdAt,value
2023-05-22T00:00:58.564Z,60.59
2023-05-22T00:01:58.521Z,68.48
2023-05-22T00:02:58.631Z,46.57
2023-05-22T00:03:58.477Z,46.41
2023-05-22T00:04:58.561Z,46.25
2023-05-22T00:05:58.510Z,45.60
2023-05-22T00:06:58.581Z,67.03
2023-05-22T00:07:58.494Z,48.82
2023-05-22T00:08:58.492Z,65.58
2023-05-22T00:09:58.511Z,63.81
2023-05-22T00:10:59.019Z,46.25
2023-05-22T00:11:58.427Z,47.21
2023-05-22T00:13:01.365Z,49.79
2023-05-22T00:13:58.446Z,47.05
2023-05-22T00:14:58.421Z,68.00
2023-05-22T00:15:59.409Z,49.15
2023-05-22T00:16:58.594Z,68.00
2023-05-22T00:17:58.488Z,68.96
2023-05-22T00:18:58.795Z,68.00
2023-05-22T00:19:58.378Z,46.08
2023-05-22T00:20:58.439Z,46.89
2023-05-22T00:21:59.331Z,48.50
2023-05-22T00:22:58.381Z,47.21
2023-05-22T00:23:58.554Z,47.86
2023-05-22T00:24:58.335Z,47.21
2023-05-22T00:25:58.336Z,45.44
2023-05-22T00:26:58.341Z,66.87
2023-05-22T00:27:58.315Z,49.79
2023-05-22T00:28:58.318Z,48.82
2023-05-22T00:29:58.314Z,50.43
2023-05-22T00:30:58.275Z,47.53
2023-05-22T00:31:58.313Z,49.15
2023-05-22T00:32:58.447Z,66.55
2023-05-22T00:33:58.271Z,71.22
2023-05-22T00:34:58.275Z,49.95
2023-05-22T00:35:58.241Z,48.50
2023-05-22T00:36:58.252Z,46.89
2023-05-22T00:37:58.258Z,49.15
2023-05-22T00:38:58.216Z,48.18
2023-05-22T00:39:58.232Z,48.66
2023-05-22T00:40:58.243Z,49.15
2023-05-22T00:41:58.223Z,49.47
2023-05-22T00:42:58.256Z,68.16
2023-05-22T00:43:58.201Z,61.87
2023-05-22T00:44:58.191Z,48.02
2023-05-22T00:45:58.169Z,48.50
2023-05-22T00:46:58.224Z,67.51
2023-05-22T00:47:59.098Z,66.71
2023-05-22T00:48:58.178Z,67.51
2023-05-22T00:49:58.155Z,48.98
2023-05-22T00:50:58.144Z,50.27
2023-05-22T00:51:59.112Z,51.72
2023-05-22T00:52:58.131Z,48.02
2023-05-22T00:53:58.334Z,67.03
2023-05-22T00:54:58.125Z,68.16
2023-05-22T00:55:58.140Z,61.07
2023-05-22T00:56:58.101Z,63.81
2023-05-22T00:57:58.089Z,47.05
2023-05-22T00:58:58.082Z,46.89
2023-05-22T00:59:58.120Z,47.21
2023-05-22T01:00:58.097Z,46.89
2023-05-22T01:01:58.084Z,47.37
2023-05-22T01:02:58.113Z,48.18
2023-05-22T01:03:58.188Z,47.86
2023-05-22T01:04:58.191Z,71.54
2023-05-22T01:05:58.089Z,64.94
2023-05-22T01:06:58.047Z,68.64
2023-05-22T01:07:58.020Z,69.13
2023-05-22T01:08:58.024Z,47.70
2023-05-22T01:09:57.997Z,48.66
2023-05-22T01:10:57.992Z,49.79
2023-05-22T01:11:58.046Z,62.84
2023-05-22T01:12:57.963Z,70.42
2023-05-22T01:13:57.944Z,50.60
2023-05-22T01:14:57.954Z,49.47
2023-05-22T01:15:58.165Z,69.93
2023-05-22T01:16:57.983Z,71.87
2023-05-22T01:17:57.936Z,47.86
2023-05-22T01:18:57.930Z,47.86
2023-05-22T01:19:57.929Z,45.76
2023-05-22T01:20:57.912Z,46.08
2023-05-22T01:21:57.898Z,46.73
2023-05-22T01:22:57.957Z,68.96
2023-05-22T01:23:57.897Z,64.13
2023-05-22T01:24:57.881Z,47.86
2023-05-22T01:25:57.870Z,46.73
2023-05-22T01:26:57.845Z,46.25
2023-05-22T01:27:58.516Z,46.73
2023-05-22T01:28:57.832Z,67.35
2023-05-22T01:29:57.859Z,50.76
2023-05-22T01:30:58.043Z,47.53
2023-05-22T01:31:57.824Z,68.80
2023-05-22T01:32:57.951Z,65.26
2023-05-22T01:33:58.012Z,69.77
2023-05-22T01:34:57.817Z,48.02
2023-05-22T01:35:57.787Z,50.43
2023-05-22T01:36:58.513Z,48.34
2023-05-22T01:37:57.812Z,65.58
2023-05-22T01:38:57.786Z,63.81
2023-05-22T01:39:57.750Z,46.57
2023-05-22T01:40:57.784Z,47.53
2023-05-22T01:41:57.743Z,49.47
2023-05-22T01:42:57.731Z,50.11
2023-05-22T01:43:57.782Z,69.93
2023-05-22T01:44:57.706Z,48.98
2023-05-22T01:45:57.780Z,69.93
2023-05-22T01:46:57.694Z,54.14
2023-05-22T01:47:57.813Z,46.41
2023-05-22T01:48:57.657Z,72.51
2023-05-22T01:49:57.723Z,73.15
2023-05-22T01:50:57.899Z,68.00
2023-05-22T01:51:57.650Z,51.40
2023-05-22T01:52:57.647Z,65.58
2023-05-22T01:53:57.623Z,68.96
2023-05-22T01:54:57.652Z,50.60
2023-05-22T01:55:57.619Z,55.75
2023-05-22T01:56:57.647Z,68.00
2023-05-22T01:57:57.597Z,70.25
2023-05-22T01:58:57.600Z,70.90
2023-05-22T01:59:57.622Z,71.54
2023-05-22T02:00:57.677Z,65.58
2023-05-22T02:01:57.587Z,67.19
2023-05-22T02:02:57.687Z,72.19
2023-05-22T02:03:57.574Z,63.65
2023-05-22T02:04:57.556Z,70.42
2023-05-22T02:05:57.594Z,68.00
2023-05-22T02:06:57.561Z,70.58
2023-05-22T02:07:57.513Z,62.84
2023-05-22T02:08:57.548Z,73.96
2023-05-22T02:09:57.516Z,64.61
2023-05-22T02:10:57.548Z,68.96
2023-05-22T02:11:57.497Z,66.71
2023-05-22T02:12:58.516Z,64.61
2023-05-22T02:13:57.552Z,68.48
2023-05-22T02:14:57.482Z,68.64
2023-05-22T02:15:57.523Z,69.61
2023-05-22T02:16:57.572Z,67.03
2023-05-22T02:17:57.558Z,70.09
2023-05-22T02:18:57.505Z,69.93
2023-05-22T02:19:57.441Z,64.45
2023-05-22T02:20:57.451Z,63.97
2023-05-22T02:21:57.421Z,64.29
2023-05-22T02:22:57.388Z,57.85
2023-05-22T02:23:57.400Z,71.22
2023-05-22T02:24:57.409Z,65.58
2023-05-22T02:25:57.432Z,63.49
2023-05-22T02:26:57.349Z,73.15
2023-05-22T02:27:57.385Z,53.98
2023-05-22T02:28:58.361Z,68.16
2023-05-22T02:29:58.726Z,72.51
2023-05-22T02:30:57.400Z,72.03
2023-05-22T02:31:57.366Z,73.32
2023-05-22T02:32:57.379Z,73.48
2023-05-22T02:33:57.311Z,69.77
2023-05-22T02:34:57.323Z,72.51
2023-05-22T02:35:57.335Z,74.12
2023-05-22T02:36:57.285Z,71.87
2023-05-22T02:37:57.417Z,71.87
2023-05-22T02:38:57.319Z,58.65
2023-05-22T02:39:57.265Z,71.06
2023-05-22T02:40:57.274Z,68.80
2023-05-22T02:41:57.229Z,53.82
2023-05-22T02:42:58.108Z,54.14
2023-05-22T02:43:57.293Z,71.06
2023-05-22T02:44:57.274Z,71.38
2023-05-22T02:45:57.209Z,74.93
2023-05-22T02:46:57.433Z,64.78
2023-05-22T02:47:57.269Z,71.38
2023-05-22T02:48:58.052Z,73.32
2023-05-22T02:49:58.117Z,69.77
2023-05-22T02:50:57.192Z,53.50
2023-05-22T02:51:57.216Z,71.70
2023-05-22T02:52:57.222Z,70.09
2023-05-22T02:53:57.213Z,66.71
2023-05-22T02:54:57.225Z,74.12
2023-05-22T02:55:57.177Z,70.58
2023-05-22T02:56:57.198Z,71.38
2023-05-22T02:57:57.124Z,70.58
2023-05-22T02:58:57.130Z,73.15
2023-05-22T02:59:57.216Z,58.17
2023-05-22T03:00:57.119Z,75.41
2023-05-22T03:01:58.109Z,70.90
2023-05-22T03:02:57.236Z,74.12
2023-05-22T03:03:57.995Z,71.38
2023-05-22T03:04:57.117Z,60.26
2023-05-22T03:05:57.067Z,72.51
2023-05-22T03:06:57.090Z,69.61
2023-05-22T03:07:57.052Z,68.64
2023-05-22T03:08:57.051Z,71.87
2023-05-22T03:09:57.108Z,74.60
2023-05-22T03:10:58.038Z,68.80
2023-05-22T03:11:57.050Z,71.38
2023-05-22T03:12:58.021Z,70.25
2023-05-22T03:13:56.990Z,70.74
2023-05-22T03:14:58.031Z,68.80
2023-05-22T03:15:57.014Z,73.80
2023-05-22T03:16:56.988Z,66.55
2023-05-22T03:17:57.029Z,69.13
2023-05-22T03:18:56.974Z,78.31
2023-05-22T03:19:57.084Z,73.32
2023-05-22T03:20:56.982Z,68.48
2023-05-22T03:21:56.953Z,70.42
2023-05-22T03:22:56.945Z,71.06
2023-05-22T03:23:56.958Z,72.19
2023-05-22T03:24:56.983Z,73.48
2023-05-22T03:25:56.974Z,72.19
2023-05-22T03:26:56.981Z,73.32
2023-05-22T03:27:56.891Z,71.06
2023-05-22T03:28:56.963Z,72.83
2023-05-22T03:29:56.897Z,71.54
2023-05-22T03:30:56.901Z,77.83
2023-05-22T03:31:56.872Z,72.83
2023-05-22T03:32:57.856Z,72.19
2023-05-22T03:33:56.884Z,73.80
2023-05-22T03:34:56.866Z,73.32
2023-05-22T03:35:56.842Z,72.51
2023-05-22T03:36:56.827Z,73.15
2023-05-22T03:37:56.852Z,73.96
2023-05-22T03:38:56.824Z,71.38
2023-05-22T03:40:29.426Z,73.64
2023-05-22T03:40:56.822Z,73.32
2023-05-22T03:41:56.832Z,74.77
2023-05-22T03:42:56.790Z,75.25
2023-05-22T03:43:56.789Z,72.99
2023-05-22T03:44:56.739Z,71.54
2023-05-22T03:45:56.807Z,74.28
2023-05-22T03:46:56.769Z,72.83
2023-05-22T04:03:38.405Z,72.51
2023-05-22T04:04:38.689Z,71.70
2023-05-22T04:05:38.443Z,76.05
2023-05-22T04:06:39.531Z,81.37
2023-05-22T04:07:39.565Z,79.76
2023-05-22T04:08:39.542Z,70.42
2023-05-22T04:09:39.473Z,73.96
2023-05-22T04:10:40.371Z,78.63
2023-05-22T04:11:39.494Z,72.03
2023-05-22T04:12:39.500Z,77.34
2023-05-22T04:13:39.487Z,74.60
2023-05-22T04:14:39.468Z,73.80
2023-05-22T04:15:39.513Z,75.73
2023-05-22T04:16:39.438Z,74.44
2023-05-22T04:17:39.422Z,79.28
2023-05-22T04:18:39.388Z,77.83
2023-05-22T04:19:39.420Z,79.28
2023-05-22T04:20:39.648Z,71.06
2023-05-22T04:21:39.418Z,78.47
2023-05-22T04:22:39.416Z,72.83
2023-05-22T04:23:39.394Z,72.51
2023-05-22T04:24:39.406Z,76.70
2023-05-22T04:25:39.350Z,74.28
2023-05-22T04:26:41.751Z,71.54
2023-05-22T04:27:39.351Z,73.15
2023-05-22T04:28:39.363Z,72.03
2023-05-22T04:29:39.403Z,74.28
2023-05-22T04:30:39.466Z,72.51
2023-05-22T04:31:39.413Z,73.48
2023-05-22T04:32:39.324Z,72.19
2023-05-22T04:33:39.300Z,82.50
2023-05-22T04:34:39.318Z,75.57
2023-05-22T04:36:12.591Z,73.64
2023-05-22T04:36:39.267Z,72.51
2023-05-22T04:37:39.306Z,73.32
2023-05-22T04:38:40.287Z,79.44
2023-05-22T04:39:39.235Z,78.63
2023-05-22T04:40:39.420Z,81.53
2023-05-22T04:41:39.287Z,74.60
2023-05-22T04:42:40.112Z,72.35
2023-05-22T04:43:40.128Z,73.32
2023-05-22T04:44:39.256Z,72.99
2023-05-22T04:45:39.191Z,76.70
2023-05-22T04:46:39.276Z,77.02
2023-05-22T04:47:39.235Z,77.83
2023-05-22T04:48:39.164Z,77.83
2023-05-22T04:49:39.205Z,76.86
2023-05-22T04:50:40.423Z,73.96
2023-05-22T04:51:39.174Z,75.89
2023-05-22T04:52:39.161Z,79.76
2023-05-22T04:53:39.128Z,73.32
2023-05-22T04:54:39.168Z,73.64
2023-05-22T04:55:39.186Z,78.47
2023-05-22T04:56:39.119Z,75.41
2023-05-22T04:57:39.136Z,76.22
2023-05-22T04:58:39.130Z,71.87
2023-05-22T04:59:39.225Z,78.15
2023-05-22T05:00:39.212Z,71.87
2023-05-22T05:01:39.175Z,74.28
2023-05-22T05:02:39.110Z,75.25
2023-05-22T05:03:39.231Z,73.48
2023-05-22T05:04:39.086Z,74.28
2023-05-22T05:05:39.033Z,73.96
2023-05-22T05:06:39.048Z,78.47
2023-05-22T05:07:39.061Z,71.70
2023-05-22T05:08:39.061Z,74.12
2023-05-22T05:09:38.998Z,76.38
2023-05-22T05:10:39.137Z,75.73
2023-05-22T05:11:39.010Z,72.83
2023-05-22T05:12:39.023Z,77.02
2023-05-22T05:13:39.046Z,75.09
2023-05-22T05:14:38.960Z,72.83
2023-05-22T05:15:38.999Z,73.48
2023-05-22T05:16:38.992Z,74.93
2023-05-22T05:17:38.997Z,76.38
2023-05-22T05:18:38.976Z,77.67
2023-05-22T05:19:39.043Z,75.09
2023-05-22T05:20:39.239Z,74.12
2023-05-22T05:21:38.957Z,77.99
2023-05-22T05:22:39.008Z,81.05
2023-05-22T05:23:38.927Z,73.80
2023-05-22T05:24:38.926Z,76.22
2023-05-22T05:25:38.923Z,72.99
2023-05-22T05:26:38.900Z,75.57
2023-05-22T05:27:38.858Z,72.99
2023-05-22T05:28:38.888Z,73.15
2023-05-22T05:29:38.909Z,74.77
2023-05-22T05:30:39.004Z,71.87
2023-05-22T05:31:38.913Z,84.27
2023-05-22T05:32:38.884Z,81.86
2023-05-22T05:33:38.878Z,76.22
2023-05-22T05:34:39.008Z,73.32
2023-05-22T05:35:40.195Z,76.54
2023-05-22T05:36:38.799Z,73.96
2023-05-22T05:37:38.797Z,74.12
2023-05-22T05:38:38.814Z,78.79
2023-05-22T05:39:38.840Z,72.67
2023-05-22T05:40:39.111Z,77.83
2023-05-22T05:41:39.673Z,76.70
2023-05-22T05:42:38.771Z,86.85
2023-05-22T05:43:38.807Z,73.32
2023-05-22T05:44:38.763Z,76.86
2023-05-22T05:45:38.764Z,75.57
2023-05-22T05:46:38.897Z,75.89
2023-05-22T05:47:38.887Z,77.67
2023-05-22T05:48:38.761Z,75.57
2023-05-22T05:49:39.713Z,75.89
2023-05-22T05:50:39.147Z,76.38
2023-05-22T05:51:38.681Z,80.08
2023-05-22T05:52:38.702Z,79.28
2023-05-22T05:53:38.683Z,77.02
2023-05-22T05:54:38.702Z,74.93
2023-05-22T05:55:38.676Z,77.67
2023-05-22T05:56:38.693Z,73.80
2023-05-22T05:57:39.681Z,76.86
2023-05-22T05:58:38.683Z,71.70
2023-05-22T05:59:38.666Z,75.25
2023-05-22T06:00:38.783Z,71.22
2023-05-22T06:01:38.832Z,80.57
2023-05-22T06:02:38.690Z,77.67
2023-05-22T06:03:38.740Z,74.44
2023-05-22T06:04:38.607Z,77.02
2023-05-22T06:05:38.634Z,71.70
2023-05-22T06:06:38.577Z,72.19
2023-05-22T06:07:38.605Z,78.96
2023-05-22T06:08:38.600Z,78.96
2023-05-22T06:09:38.567Z,73.48
2023-05-22T06:10:38.881Z,75.73
2023-05-22T06:11:38.581Z,79.12
2023-05-22T06:12:38.565Z,76.54
2023-05-22T06:13:38.588Z,74.28
2023-05-22T06:14:38.593Z,75.41
2023-05-22T06:15:38.570Z,72.51
2023-05-22T06:16:38.598Z,77.34
2023-05-22T06:17:38.554Z,74.12
2023-05-22T06:18:38.514Z,77.83
2023-05-22T06:19:38.523Z,77.83
2023-05-22T06:20:38.692Z,76.05
2023-05-22T06:21:38.491Z,72.35
2023-05-22T06:22:39.148Z,76.70
2023-05-22T06:23:38.466Z,76.86
2023-05-22T06:24:38.474Z,80.73
2023-05-22T06:25:38.475Z,79.12
2023-05-22T06:26:38.547Z,76.54
2023-05-22T06:27:38.455Z,77.18
2023-05-22T06:28:38.467Z,75.73
2023-05-22T06:29:38.454Z,73.80
2023-05-22T06:30:43.415Z,70.74
2023-05-22T06:31:40.472Z,71.38
2023-05-22T06:32:38.508Z,72.83
2023-05-22T06:33:38.458Z,68.64
2023-05-22T06:34:38.448Z,75.89
2023-05-22T06:35:38.409Z,77.99
2023-05-22T06:36:38.390Z,73.32
2023-05-22T06:37:38.397Z,71.06
2023-05-22T06:38:38.394Z,77.50
2023-05-22T06:39:38.379Z,75.25
2023-05-22T06:40:38.483Z,72.19
2023-05-22T06:41:38.371Z,76.05
2023-05-22T06:42:38.490Z,77.34
2023-05-22T06:43:38.438Z,75.25
2023-05-22T06:44:38.327Z,73.96
2023-05-22T06:45:38.331Z,72.51
2023-05-22T06:46:38.358Z,74.12
2023-05-22T06:47:38.303Z,73.48
2023-05-22T06:48:38.305Z,78.47
2023-05-22T06:49:38.300Z,76.70
2023-05-22T06:50:38.381Z,74.12
2023-05-22T06:51:38.269Z,77.02
2023-05-22T06:52:38.275Z,73.80
2023-05-22T06:53:38.271Z,79.44
2023-05-22T06:54:38.240Z,71.38
2023-05-22T06:55:38.226Z,76.38
2023-05-22T06:56:38.231Z,76.22
2023-05-22T06:57:38.228Z,75.41
2023-05-22T06:58:38.219Z,74.28
2023-05-22T06:59:38.225Z,76.54
2023-05-22T07:00:38.570Z,73.80
2023-05-22T07:01:38.216Z,69.29
2023-05-22T07:02:38.217Z,72.03
2023-05-22T07:03:38.170Z,76.86
2023-05-22T07:04:38.199Z,71.22
2023-05-22T07:05:38.240Z,76.05
2023-05-22T07:06:38.166Z,72.83
2023-05-22T07:07:38.151Z,76.22
2023-05-22T07:08:38.174Z,72.83
2023-05-22T07:09:38.148Z,74.77
2023-05-22T07:10:38.248Z,74.93
2023-05-22T07:11:38.109Z,75.25
2023-05-22T07:12:38.101Z,78.15
2023-05-22T07:13:38.132Z,74.28
2023-05-22T07:14:38.146Z,74.12
2023-05-22T07:15:38.118Z,71.87
2023-05-22T07:16:38.167Z,74.77
2023-05-22T07:17:38.098Z,73.48
2023-05-22T07:18:38.054Z,75.25
2023-05-22T07:19:38.093Z,79.44
2023-05-22T07:20:38.288Z,73.48
2023-05-22T07:21:38.041Z,71.38
2023-05-22T07:22:38.006Z,74.60
2023-05-22T07:23:38.023Z,74.28
2023-05-22T07:24:38.028Z,74.77
2023-05-22T07:25:38.061Z,76.05
2023-05-22T07:26:38.027Z,80.57
2023-05-22T07:27:37.999Z,76.05
2023-05-22T07:28:38.007Z,75.09
2023-05-22T07:29:37.986Z,73.80
2023-05-22T07:30:38.296Z,74.44
2023-05-22T07:31:38.082Z,71.38
2023-05-22T07:32:38.011Z,76.54
2023-05-22T07:33:37.940Z,72.03
2023-05-22T07:34:38.040Z,71.22
2023-05-22T07:35:37.897Z,70.42
2023-05-22T07:36:37.952Z,76.38
2023-05-22T07:37:37.959Z,72.03
2023-05-22T07:38:37.890Z,77.67
2023-05-22T07:39:37.911Z,73.48
2023-05-22T07:40:38.170Z,71.06
2023-05-22T07:41:37.908Z,77.02
2023-05-22T07:42:37.858Z,72.99
2023-05-22T07:43:37.885Z,77.67
2023-05-22T07:44:37.991Z,74.77
2023-05-22T07:45:37.974Z,74.93
2023-05-22T07:46:38.238Z,72.35
2023-05-22T07:47:37.936Z,70.90
2023-05-22T07:48:38.886Z,76.86
2023-05-22T07:49:37.812Z,72.83
2023-05-22T07:50:37.811Z,78.15
2023-05-22T07:51:37.787Z,70.09
2023-05-22T07:52:37.815Z,76.22
2023-05-22T07:53:37.781Z,70.58
2023-05-22T07:54:37.919Z,77.67
2023-05-22T07:55:37.957Z,78.96
2023-05-22T07:56:37.798Z,70.74
2023-05-22T07:57:37.786Z,70.42
2023-05-22T07:58:37.742Z,75.57
2023-05-22T07:59:37.815Z,69.13
2023-05-22T08:00:37.753Z,77.67
2023-05-22T08:01:37.752Z,79.60
2023-05-22T08:02:37.992Z,75.09
2023-05-22T08:03:37.904Z,77.83
2023-05-22T08:04:38.914Z,77.18
2023-05-22T08:05:37.728Z,70.09
2023-05-22T08:06:37.742Z,73.32
2023-05-22T08:07:37.691Z,77.67
2023-05-22T08:08:37.736Z,75.41
2023-05-22T08:09:37.730Z,77.18
2023-05-22T08:12:10.140Z,72.51
2023-05-22T08:12:37.708Z,76.38
2023-05-22T08:14:09.601Z,72.03
2023-05-22T08:15:11.817Z,68.16
2023-05-22T08:15:37.712Z,70.09
2023-05-22T08:16:37.865Z,73.15
2023-05-22T08:17:37.697Z,72.83
2023-05-22T08:18:37.941Z,71.70
2023-05-22T08:19:37.930Z,80.73
2023-05-22T08:20:37.961Z,71.70
2023-05-22T08:21:37.817Z,71.70
2023-05-22T08:22:37.673Z,75.41
2023-05-22T08:23:37.563Z,75.25
2023-05-22T08:24:37.633Z,69.61
2023-05-22T08:25:37.585Z,71.70
2023-05-22T08:26:37.686Z,74.28
2023-05-22T08:27:37.667Z,74.77
2023-05-22T08:28:37.555Z,72.19
2023-05-22T08:29:37.579Z,70.74
2023-05-22T08:30:37.829Z,76.70
2023-05-22T08:31:37.533Z,70.74
2023-05-22T08:32:37.658Z,71.22
2023-05-22T08:33:39.205Z,72.99
2023-05-22T08:34:37.742Z,77.02
2023-05-22T08:35:37.488Z,74.28
2023-05-22T08:36:37.499Z,69.45
2023-05-22T08:37:37.483Z,75.41
2023-05-22T08:38:37.541Z,73.64
2023-05-22T08:39:37.448Z,75.89
2023-05-22T08:40:37.676Z,76.38
2023-05-22T08:41:37.427Z,71.22
2023-05-22T08:42:37.456Z,76.86
2023-05-22T08:43:37.501Z,74.93
2023-05-22T08:44:37.435Z,70.25
2023-05-22T08:45:37.472Z,77.02
2023-05-22T08:46:37.454Z,70.25
2023-05-22T08:47:37.503Z,74.93
2023-05-22T08:48:37.386Z,71.70
2023-05-22T08:49:37.385Z,66.71
2023-05-22T08:50:37.883Z,73.64
2023-05-22T08:51:37.413Z,68.96
2023-05-22T08:52:37.376Z,73.32
2023-05-22T08:53:37.386Z,76.86
2023-05-22T08:54:37.362Z,73.80
2023-05-22T08:55:37.401Z,72.35
2023-05-22T08:56:39.837Z,76.38
2023-05-22T08:57:38.351Z,75.89
2023-05-22T08:58:37.313Z,71.70
2023-05-22T08:59:37.337Z,70.74
2023-05-22T09:00:38.469Z,74.44
2023-05-22T09:01:37.351Z,69.45
2023-05-22T09:02:37.366Z,70.58
2023-05-22T09:03:38.336Z,75.41
2023-05-22T09:04:37.410Z,75.89
2023-05-22T09:05:37.392Z,76.05
2023-05-22T09:06:37.440Z,75.57
2023-05-22T09:07:37.314Z,69.93
2023-05-22T09:08:37.350Z,68.96
2023-05-22T09:09:37.368Z,71.22
2023-05-22T09:10:37.457Z,73.15
2023-05-22T09:11:37.238Z,66.71
2023-05-22T09:12:37.249Z,74.44
2023-05-22T09:14:09.254Z,68.16
2023-05-22T09:14:38.201Z,75.73
2023-05-22T09:15:37.215Z,74.28
2023-05-22T09:16:37.207Z,75.25
2023-05-22T09:17:37.249Z,75.25
2023-05-22T09:18:37.148Z,71.70
2023-05-22T09:19:38.210Z,68.64
2023-05-22T09:20:37.324Z,72.99
2023-05-22T09:21:37.149Z,77.02
2023-05-22T09:22:37.158Z,69.29
2023-05-22T09:23:37.128Z,71.38
2023-05-22T09:24:37.113Z,69.93
2023-05-22T09:25:37.189Z,75.41
2023-05-22T09:26:37.143Z,73.96
2023-05-22T09:27:37.090Z,72.99
2023-05-22T09:28:37.121Z,75.09
2023-05-22T09:29:37.173Z,70.09
2023-05-22T09:30:37.180Z,75.41
2023-05-22T09:31:37.705Z,69.77
2023-05-22T09:32:37.119Z,70.42
2023-05-22T09:33:37.639Z,69.13
2023-05-22T09:34:37.107Z,69.77
2023-05-22T09:35:37.094Z,68.48
2023-05-22T09:36:37.067Z,68.32
2023-05-22T09:37:37.094Z,73.96
2023-05-22T09:38:37.106Z,70.90
2023-05-22T09:39:37.034Z,70.58
2023-05-22T09:40:37.217Z,73.32
2023-05-22T09:41:37.018Z,70.25
2023-05-22T09:42:37.011Z,68.32
2023-05-22T09:43:37.012Z,68.64
2023-05-22T09:44:37.012Z,75.09
2023-05-22T09:45:37.034Z,75.41
2023-05-22T09:46:37.047Z,72.19
2023-05-22T09:47:36.993Z,66.87
2023-05-22T09:48:36.995Z,71.87
2023-05-22T09:49:36.949Z,69.93
2023-05-22T09:50:37.007Z,69.29
2023-05-22T09:51:37.063Z,70.09
2023-05-22T09:52:36.937Z,69.61
2023-05-22T09:53:38.018Z,74.93
2023-05-22T09:54:37.084Z,68.80
2023-05-22T09:55:36.938Z,74.60
2023-05-22T09:56:39.976Z,74.44
2023-05-22T09:57:37.921Z,70.09
2023-05-22T09:58:36.909Z,75.73
2023-05-22T09:59:36.917Z,70.90
2023-05-22T10:00:36.917Z,68.80
2023-05-22T10:01:36.968Z,71.54
2023-05-22T10:02:36.928Z,74.60
2023-05-22T10:03:36.881Z,70.58
2023-05-22T10:04:36.918Z,74.60
2023-05-22T10:05:36.894Z,73.96
2023-05-22T10:06:36.876Z,69.13
2023-05-22T10:07:36.847Z,74.93
2023-05-22T10:08:36.862Z,69.29
2023-05-22T10:09:36.839Z,72.03
2023-05-22T10:10:36.858Z,78.63
2023-05-22T10:11:36.889Z,74.44
2023-05-22T10:12:36.849Z,72.51
2023-05-22T10:13:36.816Z,75.41
2023-05-22T10:14:36.816Z,75.73
2023-05-22T10:15:36.868Z,75.09
2023-05-22T10:16:36.854Z,76.05
2023-05-22T10:17:36.815Z,70.25
2023-05-22T10:18:36.789Z,72.19
2023-05-22T10:19:38.593Z,72.03
2023-05-22T10:20:36.959Z,76.86
2023-05-22T10:21:36.743Z,69.93
2023-05-22T10:22:36.761Z,75.89
2023-05-22T10:23:36.731Z,75.57
2023-05-22T10:24:36.712Z,74.28
2023-05-22T10:25:36.714Z,76.54
2023-05-22T10:26:37.426Z,70.42
2023-05-22T10:27:36.693Z,70.58
2023-05-22T10:28:36.694Z,69.61
2023-05-22T10:29:36.747Z,75.89
2023-05-22T10:30:36.729Z,70.42
2023-05-22T10:31:37.964Z,68.96
2023-05-22T10:32:36.688Z,69.45
2023-05-22T10:33:36.724Z,73.96
2023-05-22T10:34:36.640Z,67.84
2023-05-22T10:35:36.668Z,75.41
2023-05-22T10:36:36.676Z,75.41
2023-05-22T10:37:36.642Z,71.54
2023-05-22T10:38:36.617Z,75.41
2023-05-22T10:39:36.637Z,69.77
2023-05-22T10:40:37.362Z,70.25
2023-05-22T10:41:36.660Z,68.48
2023-05-22T10:42:36.664Z,76.70
2023-05-22T10:43:36.612Z,73.32
2023-05-22T10:44:36.557Z,77.02
2023-05-22T10:45:36.756Z,71.38
2023-05-22T10:46:36.579Z,79.12
2023-05-22T10:47:36.584Z,76.38
2023-05-22T10:48:36.538Z,72.35
2023-05-22T10:49:36.525Z,73.96
2023-05-22T10:50:36.560Z,72.99
2023-05-22T10:51:36.549Z,70.58
2023-05-22T10:52:36.531Z,69.77
2023-05-22T10:53:36.545Z,72.99
2023-05-22T10:54:36.523Z,74.44
2023-05-22T10:55:36.546Z,70.42
2023-05-22T10:56:36.526Z,71.54
2023-05-22T10:57:36.461Z,81.53
2023-05-22T10:58:36.538Z,79.60
2023-05-22T10:59:36.455Z,75.57
2023-05-22T11:00:36.522Z,70.74
2023-05-22T11:01:37.515Z,75.25
2023-05-22T11:02:36.476Z,76.86
2023-05-22T11:03:36.499Z,75.25
2023-05-22T11:04:36.434Z,76.70
2023-05-22T11:05:36.402Z,72.19
2023-05-22T11:06:36.484Z,69.61
2023-05-22T11:07:36.424Z,72.83
2023-05-22T11:08:36.363Z,75.09
2023-05-22T11:09:36.513Z,70.25
2023-05-22T11:10:36.417Z,74.93
2023-05-22T11:11:36.365Z,75.89
2023-05-22T11:12:36.400Z,73.15
2023-05-22T11:13:36.478Z,73.80
2023-05-22T11:14:36.456Z,69.61
2023-05-22T11:15:36.357Z,68.16
2023-05-22T11:16:36.398Z,67.03
2023-05-22T11:17:36.547Z,75.09
2023-05-22T11:18:36.331Z,72.83
2023-05-22T11:19:36.364Z,74.28
2023-05-22T11:20:36.325Z,72.99
2023-05-22T11:21:36.311Z,77.18
2023-05-22T11:22:36.306Z,74.44
2023-05-22T11:23:36.290Z,68.96
2023-05-22T11:24:36.300Z,74.28
2023-05-22T11:25:36.332Z,70.74
2023-05-22T11:26:36.248Z,76.05
2023-05-22T11:27:36.239Z,70.25
2023-05-22T11:28:36.279Z,70.74
2023-05-22T11:29:36.214Z,69.29
2023-05-22T11:30:36.994Z,74.77
2023-05-22T11:31:36.348Z,70.09
2023-05-22T11:32:36.261Z,72.83
2023-05-22T11:33:36.200Z,72.67
2023-05-22T11:34:36.256Z,69.45
2023-05-22T11:35:36.242Z,77.02
2023-05-22T11:36:36.207Z,67.19
2023-05-22T11:37:36.182Z,75.73
2023-05-22T11:38:36.185Z,76.86
2023-05-22T11:39:36.190Z,72.03
2023-05-22T11:40:36.232Z,73.32
2023-05-22T11:41:36.185Z,70.90
2023-05-22T11:42:36.172Z,71.54
2023-05-22T11:43:36.139Z,76.54
2023-05-22T11:44:36.115Z,74.77
2023-05-22T11:45:36.118Z,73.32
2023-05-22T11:46:36.290Z,79.44
2023-05-22T11:47:36.231Z,72.19
2023-05-22T11:48:36.116Z,76.22
2023-05-22T11:49:36.095Z,74.28
2023-05-22T11:50:42.178Z,72.67
2023-05-22T11:51:38.154Z,70.25
2023-05-22T11:52:36.077Z,75.09
2023-05-22T11:53:36.074Z,71.70
2023-05-22T11:54:38.621Z,73.32
2023-05-22T11:55:37.859Z,67.84
2023-05-22T11:56:36.192Z,73.32
2023-05-22T11:57:36.915Z,77.34
2023-05-22T11:58:36.034Z,74.44
2023-05-22T11:59:36.107Z,69.61
2023-05-22T12:00:36.034Z,74.44
2023-05-22T12:01:36.007Z,69.29
2023-05-22T12:02:36.241Z,69.77
2023-05-22T12:03:36.243Z,78.15
2023-05-22T12:04:36.062Z,75.09
2023-05-22T12:05:36.001Z,73.80
2023-05-22T12:06:36.076Z,71.06
2023-05-22T12:07:36.020Z,69.77
2023-05-22T12:08:35.984Z,68.64
2023-05-22T12:09:35.949Z,72.35
2023-05-22T12:10:36.117Z,75.57
2023-05-22T12:11:35.924Z,73.96
2023-05-22T12:12:35.975Z,74.60
2023-05-22T12:13:36.042Z,78.63
2023-05-22T12:14:35.910Z,75.89
2023-05-22T12:15:35.951Z,67.84
2023-05-22T12:16:36.052Z,74.44
2023-05-22T12:17:35.926Z,71.38
2023-05-22T12:18:35.975Z,77.83
2023-05-22T12:19:35.989Z,74.93
2023-05-22T12:20:35.969Z,73.96
2023-05-22T12:21:35.902Z,69.29
2023-05-22T12:22:35.858Z,75.41
2023-05-22T12:23:36.854Z,69.77
2023-05-22T12:24:35.877Z,75.89
2023-05-22T12:25:35.821Z,68.32
2023-05-22T12:26:35.837Z,74.12
2023-05-22T12:27:37.276Z,75.09
2023-05-22T12:28:35.819Z,74.60
2023-05-22T12:29:35.813Z,70.25
2023-05-22T12:30:35.816Z,74.12
2023-05-22T12:31:35.874Z,74.93
2023-05-22T12:32:36.790Z,69.77
2023-05-22T12:34:08.440Z,76.05
2023-05-22T12:35:07.722Z,70.25
2023-05-22T12:36:07.713Z,73.64
2023-05-22T12:37:08.377Z,68.80
2023-05-22T12:38:08.405Z,73.48
2023-05-22T12:39:08.441Z,65.58
2023-05-22T12:40:08.472Z,72.03
2023-05-22T12:41:07.681Z,69.13
2023-05-22T12:41:35.757Z,67.19
2023-05-22T12:42:35.725Z,76.54
2023-05-22T12:43:35.769Z,78.79
2023-05-22T12:44:35.715Z,72.51
2023-05-22T12:45:35.689Z,75.09
2023-05-22T12:46:35.790Z,69.77
2023-05-22T12:47:35.712Z,73.32
2023-05-22T12:48:35.676Z,74.77
2023-05-22T12:49:35.756Z,68.32
2023-05-22T12:50:35.705Z,73.15
2023-05-22T12:51:35.717Z,73.96
2023-05-22T12:52:35.661Z,76.54
2023-05-22T12:53:37.135Z,72.19
2023-05-22T12:54:35.679Z,70.25
2023-05-22T12:55:35.645Z,75.41
2023-05-22T12:56:35.647Z,71.87
2023-05-22T12:57:35.663Z,74.44
2023-05-22T12:58:35.625Z,75.89
2023-05-22T12:59:35.620Z,68.16
2023-05-22T13:00:35.628Z,73.96
2023-05-22T13:01:35.674Z,74.44
2023-05-22T13:02:35.635Z,73.80
2023-05-22T13:03:35.708Z,73.80
2023-05-22T13:04:35.640Z,68.80
2023-05-22T13:05:35.639Z,72.99
2023-05-22T13:06:35.581Z,91.36
2023-05-22T13:07:35.606Z,69.61
2023-05-22T13:08:35.675Z,74.12
2023-05-22T13:09:35.792Z,74.12